createdAt,value
2022-10-14T00:00:36.164Z,1013.26
2022-10-14T00:01:36.194Z,1013.24
2022-10-14T00:02:36.167Z,1013.24
2022-10-14T00:03:36.115Z,1013.28
2022-10-14T00:04:36.136Z,1013.19
2022-10-14T00:05:36.117Z,1013.17
2022-10-14T00:06:36.112Z,1013.21
2022-10-14T00:07:36.115Z,1013.18
2022-10-14T00:08:36.076Z,1013.23
2022-10-14T00:09:36.053Z,1013.14
2022-10-14T00:10:36.053Z,1013.23
2022-10-14T00:11:36.024Z,1013.22
2022-10-14T00:12:36.063Z,1013.15
2022-10-14T00:13:36.024Z,1013.13
2022-10-14T00:14:35.980Z,1013.15
2022-10-14T00:15:36.013Z,1013.15
2022-10-14T00:16:36.007Z,1013.04
2022-10-14T00:17:35.961Z,1013.12
2022-10-14T00:18:35.946Z,1013.05
2022-10-14T00:19:35.911Z,1013.02
2022-10-14T00:23:49.154Z,1013.05
2022-10-14T00:24:50.043Z,1013.02
2022-10-14T00:25:49.024Z,1013.08
2022-10-14T00:26:49.013Z,1013.03
2022-10-14T00:27:49.004Z,1013.06
2022-10-14T00:28:49.060Z,1013.06
2022-10-14T00:29:48.956Z,1013.09
2022-10-14T00:30:48.947Z,1013.05
2022-10-14T00:31:48.945Z,1013.05
2022-10-14T00:32:48.946Z,1013.04
2022-10-14T00:33:48.903Z,1013.07
2022-10-14T00:34:48.892Z,1013.05
2022-10-14T00:35:48.867Z,1012.99
2022-10-14T00:36:48.856Z,1013.03
2022-10-14T00:37:48.860Z,1013.06
2022-10-14T00:38:48.865Z,1013.02
2022-10-14T00:39:52.315Z,1013.02
2022-10-14T00:40:49.808Z,1013.04
2022-10-14T00:41:48.802Z,1012.98
2022-10-14T00:42:48.812Z,1013.00
2022-10-14T00:43:48.795Z,1013.00
2022-10-14T00:44:48.753Z,1013.05
2022-10-14T00:45:48.768Z,1013.04
2022-10-14T00:46:48.721Z,1013.02
2022-10-14T00:47:48.722Z,1013.02
2022-10-14T00:48:48.726Z,1013.01
2022-10-14T00:49:48.715Z,1013.04
2022-10-14T00:50:48.717Z,1013.03
2022-10-14T00:51:48.661Z,1012.96
2022-10-14T00:52:48.661Z,1012.99
2022-10-14T00:53:48.656Z,1013.02
2022-10-14T00:54:48.659Z,1013.04
2022-10-14T00:55:48.614Z,1012.97
2022-10-14T00:56:48.592Z,1013.03
2022-10-14T00:57:48.620Z,1013.07
2022-10-14T00:58:48.582Z,1012.94
2022-10-14T00:59:48.573Z,1013.01
2022-10-14T01:00:48.608Z,1012.94
2022-10-14T01:01:48.561Z,1012.93
2022-10-14T01:02:48.519Z,1012.95
2022-10-14T01:03:48.534Z,1012.94
2022-10-14T01:04:48.523Z,1012.96
2022-10-14T01:05:48.494Z,1012.94
2022-10-14T01:06:48.484Z,1012.90
2022-10-14T01:07:48.459Z,1012.94
2022-10-14T01:08:48.464Z,1012.86
2022-10-14T01:09:48.449Z,1012.92
2022-10-14T01:10:48.423Z,1012.95
2022-10-14T01:12:00.159Z,1013.00
2022-10-14T01:12:49.422Z,1012.91
2022-10-14T01:13:48.382Z,1012.92
2022-10-14T01:14:48.348Z,1012.91
2022-10-14T01:15:48.362Z,1012.87
2022-10-14T01:16:48.372Z,1012.89
2022-10-14T01:17:48.354Z,1012.89
2022-10-14T01:18:48.341Z,1012.92
2022-10-14T01:19:48.319Z,1012.90
2022-10-14T01:20:48.288Z,1012.81
2022-10-14T01:21:48.313Z,1012.84
2022-10-14T01:22:48.267Z,1012.84
2022-10-14T01:23:48.261Z,1012.83
2022-10-14T01:24:48.231Z,1012.80
2022-10-14T01:25:48.241Z,1012.80
2022-10-14T01:26:48.210Z,1012.76
2022-10-14T01:27:48.208Z,1012.72
2022-10-14T01:28:48.270Z,1012.74
2022-10-14T01:29:48.210Z,1012.72
2022-10-14T01:30:48.160Z,1012.65
2022-10-14T01:31:48.204Z,1012.67
2022-10-14T01:32:48.147Z,1012.64
2022-10-14T01:33:48.130Z,1012.60
2022-10-14T01:34:48.097Z,1012.57
2022-10-14T01:35:48.123Z,1012.56
2022-10-14T01:36:48.087Z,1012.61
2022-10-14T01:37:48.085Z,1012.55
2022-10-14T01:38:48.056Z,1012.53
2022-10-14T01:39:48.059Z,1012.53
2022-10-14T01:40:48.027Z,1012.45
2022-10-14T01:41:48.014Z,1012.52
2022-10-14T01:42:48.027Z,1012.50
2022-10-14T01:43:47.995Z,1012.49
2022-10-14T01:44:47.993Z,1012.43
2022-10-14T01:45:47.955Z,1012.43
2022-10-14T01:46:47.956Z,1012.38
2022-10-14T01:47:47.958Z,1012.34
2022-10-14T01:48:47.948Z,1012.32
2022-10-14T01:49:47.939Z,1012.36
2022-10-14T01:50:47.907Z,1012.29
2022-10-14T01:51:47.886Z,1012.25
2022-10-14T01:52:47.917Z,1012.26
2022-10-14T01:53:47.868Z,1012.24
2022-10-14T01:54:47.844Z,1012.26
2022-10-14T01:55:47.834Z,1012.26
2022-10-14T01:56:47.833Z,1012.23
2022-10-14T01:57:47.848Z,1012.26
2022-10-14T01:58:47.803Z,1012.27
2022-10-14T01:59:47.788Z,1012.26
2022-10-14T02:00:47.778Z,1012.19
2022-10-14T02:01:47.812Z,1012.20
2022-10-14T02:02:47.747Z,1012.23
2022-10-14T02:03:47.720Z,1012.18
2022-10-14T02:04:47.746Z,1012.27
2022-10-14T02:05:47.703Z,1012.15
2022-10-14T02:06:47.704Z,1012.18
2022-10-14T02:07:47.696Z,1012.19
2022-10-14T02:08:47.685Z,1012.15
2022-10-14T02:09:47.666Z,1012.16
2022-10-14T02:10:47.633Z,1012.17
2022-10-14T02:11:47.633Z,1012.15
2022-10-14T02:12:47.654Z,1012.13
2022-10-14T02:13:47.584Z,1012.13
2022-10-14T02:14:47.584Z,1012.08
2022-10-14T02:15:47.617Z,1012.10
2022-10-14T02:16:47.552Z,1012.12
2022-10-14T02:17:47.605Z,1012.12
2022-10-14T02:18:47.529Z,1012.11
2022-10-14T02:19:47.549Z,1012.13
2022-10-14T02:20:47.513Z,1012.08
2022-10-14T02:21:47.507Z,1012.15
2022-10-14T02:22:47.511Z,1012.05
2022-10-14T02:23:47.450Z,1012.06
2022-10-14T02:24:47.451Z,1012.09
2022-10-14T02:25:47.420Z,1012.03
2022-10-14T02:27:41.597Z,1012.05
2022-10-14T02:28:41.601Z,1012.05
2022-10-14T02:29:41.546Z,1012.00
2022-10-14T02:30:41.514Z,1012.02
2022-10-14T02:31:41.526Z,1012.05
2022-10-14T02:32:41.536Z,1011.99
2022-10-14T02:33:41.547Z,1012.02
2022-10-14T02:34:41.466Z,1011.99
2022-10-14T02:35:41.505Z,1011.97
2022-10-14T02:36:41.457Z,1011.98
2022-10-14T02:37:42.225Z,1011.95
2022-10-14T02:38:41.447Z,1012.00
2022-10-14T02:39:41.386Z,1011.95
2022-10-14T02:40:41.396Z,1012.01
2022-10-14T02:41:41.430Z,1011.97
2022-10-14T02:42:41.354Z,1011.96
2022-10-14T02:43:41.384Z,1011.94
2022-10-14T02:44:41.375Z,1011.95
2022-10-14T02:45:41.345Z,1011.92
2022-10-14T02:46:41.360Z,1011.95
2022-10-14T02:47:41.339Z,1011.92
2022-10-14T02:48:41.322Z,1011.92
2022-10-14T02:49:41.242Z,1011.88
2022-10-14T02:50:41.231Z,1011.93
2022-10-14T02:51:41.303Z,1011.87
2022-10-14T02:52:41.214Z,1011.85
2022-10-14T02:53:41.277Z,1011.82
2022-10-14T02:54:41.194Z,1011.82
2022-10-14T02:55:41.171Z,1011.82
2022-10-14T02:56:41.172Z,1011.73
2022-10-14T02:57:41.202Z,1011.73
2022-10-14T02:58:41.140Z,1011.73
2022-10-14T02:59:41.130Z,1011.72
2022-10-14T03:00:41.124Z,1011.73
2022-10-14T03:01:41.150Z,1011.73
2022-10-14T03:02:41.110Z,1011.74
2022-10-14T03:03:41.068Z,1011.79
2022-10-14T03:04:41.054Z,1011.73
2022-10-14T03:05:41.049Z,1011.72
2022-10-14T03:06:41.049Z,1011.71
2022-10-14T03:07:41.008Z,1011.66
2022-10-14T03:08:41.052Z,1011.66
2022-10-14T03:09:40.988Z,1011.70
2022-10-14T03:10:40.992Z,1011.69
2022-10-14T03:11:41.934Z,1011.67
2022-10-14T03:12:40.980Z,1011.69
2022-10-14T03:13:40.952Z,1011.66
2022-10-14T03:14:40.918Z,1011.65
2022-10-14T03:15:40.907Z,1011.68
2022-10-14T03:16:40.908Z,1011.69
2022-10-14T03:17:40.911Z,1011.67
2022-10-14T03:18:40.934Z,1011.73
2022-10-14T03:19:40.870Z,1011.65
2022-10-14T03:20:40.864Z,1011.67
2022-10-14T03:21:40.860Z,1011.64
2022-10-14T03:22:40.821Z,1011.65
2022-10-14T03:23:40.818Z,1011.68
2022-10-14T03:24:40.799Z,1011.60
2022-10-14T03:25:40.792Z,1011.64
2022-10-14T03:26:40.792Z,1011.63
2022-10-14T03:27:40.766Z,1011.63
2022-10-14T03:28:40.828Z,1011.63
2022-10-14T03:29:40.740Z,1011.59
2022-10-14T03:30:40.713Z,1011.60
2022-10-14T03:31:40.720Z,1011.61
2022-10-14T03:32:40.697Z,1011.54
2022-10-14T03:33:40.708Z,1011.56
2022-10-14T03:34:40.679Z,1011.52
2022-10-14T03:35:40.647Z,1011.57
2022-10-14T03:36:40.672Z,1011.49
2022-10-14T03:37:40.638Z,1011.54
2022-10-14T03:38:40.626Z,1011.55
2022-10-14T03:39:40.628Z,1011.56
2022-10-14T03:40:40.619Z,1011.55
2022-10-14T03:41:40.578Z,1011.54
2022-10-14T03:42:40.567Z,1011.54
2022-10-14T03:43:40.543Z,1011.57
2022-10-14T03:44:40.554Z,1011.53
2022-10-14T03:45:40.518Z,1011.57
2022-10-14T03:46:40.513Z,1011.48
2022-10-14T03:47:40.565Z,1011.52
2022-10-14T03:48:40.497Z,1011.51
2022-10-14T03:49:40.490Z,1011.53
2022-10-14T03:50:40.478Z,1011.51
2022-10-14T03:51:40.460Z,1011.48
2022-10-14T03:52:44.853Z,1011.49
2022-10-14T03:53:41.437Z,1011.48
2022-10-14T03:54:40.416Z,1011.43
2022-10-14T03:55:40.405Z,1011.50
2022-10-14T03:56:40.393Z,1011.43
2022-10-14T03:57:40.400Z,1011.42
2022-10-14T03:58:40.387Z,1011.39
2022-10-14T03:59:40.369Z,1011.37
2022-10-14T04:00:40.345Z,1011.38
2022-10-14T04:01:40.390Z,1011.38
2022-10-14T04:02:40.316Z,1011.34
2022-10-14T04:03:40.282Z,1011.33
2022-10-14T04:04:40.344Z,1011.35
2022-10-14T04:05:40.311Z,1011.34
2022-10-14T04:06:40.275Z,1011.37
2022-10-14T04:07:40.234Z,1011.37
2022-10-14T04:08:40.227Z,1011.37
2022-10-14T04:09:40.256Z,1011.34
2022-10-14T04:10:40.215Z,1011.37
2022-10-14T04:11:40.198Z,1011.40
2022-10-14T04:12:40.191Z,1011.42
2022-10-14T04:13:40.160Z,1011.41
2022-10-14T04:14:40.185Z,1011.40
2022-10-14T04:15:40.147Z,1011.40
2022-10-14T04:16:40.141Z,1011.40
2022-10-14T04:17:40.115Z,1011.41
2022-10-14T04:18:40.111Z,1011.47
2022-10-14T04:19:40.107Z,1011.48
2022-10-14T04:20:40.080Z,1011.43
2022-10-14T04:21:40.076Z,1011.47
2022-10-14T04:22:40.064Z,1011.43
2022-10-14T04:23:40.044Z,1011.43
2022-10-14T04:24:40.766Z,1011.41
2022-10-14T04:25:40.030Z,1011.43
2022-10-14T04:26:40.012Z,1011.38
2022-10-14T04:27:39.990Z,1011.40
2022-10-14T04:28:40.076Z,1011.40
2022-10-14T04:29:40.020Z,1011.35
2022-10-14T04:30:40.700Z,1011.33
2022-10-14T04:31:39.931Z,1011.33
2022-10-14T04:32:39.922Z,1011.30
2022-10-14T04:33:39.912Z,1011.34
2022-10-14T04:34:39.906Z,1011.35
2022-10-14T04:35:39.882Z,1011.33
2022-10-14T04:36:39.858Z,1011.42
2022-10-14T04:37:39.885Z,1011.40
2022-10-14T04:38:39.852Z,1011.41
2022-10-14T04:39:39.891Z,1011.37
2022-10-14T04:40:39.830Z,1011.31
2022-10-14T04:41:39.808Z,1011.35
2022-10-14T04:42:39.801Z,1011.29
2022-10-14T04:43:39.781Z,1011.35
2022-10-14T04:44:39.775Z,1011.31
2022-10-14T04:45:39.761Z,1011.33
2022-10-14T04:46:39.788Z,1011.29
2022-10-14T04:47:41.260Z,1011.31
2022-10-14T04:48:39.738Z,1011.25
2022-10-14T04:49:39.729Z,1011.27
2022-10-14T04:50:40.702Z,1011.22
2022-10-14T04:51:39.680Z,1011.21
2022-10-14T04:52:39.689Z,1011.23
2022-10-14T04:53:39.640Z,1011.25
2022-10-14T04:54:39.665Z,1011.25
2022-10-14T04:55:39.618Z,1011.20
2022-10-14T04:56:39.606Z,1011.22
2022-10-14T04:57:39.588Z,1011.23
2022-10-14T04:58:39.618Z,1011.22
2022-10-14T04:59:39.609Z,1011.15
2022-10-14T05:00:39.631Z,1011.13
2022-10-14T05:01:39.601Z,1011.19
2022-10-14T05:02:39.526Z,1011.17
2022-10-14T05:03:40.455Z,1011.17
2022-10-14T05:04:39.521Z,1011.20
2022-10-14T05:05:39.487Z,1011.12
2022-10-14T05:06:39.490Z,1011.20
2022-10-14T05:07:39.465Z,1011.13
2022-10-14T05:08:39.466Z,1011.13
2022-10-14T05:09:39.471Z,1011.10
2022-10-14T05:10:39.438Z,1011.09
2022-10-14T05:11:39.416Z,1011.06
2022-10-14T05:12:39.435Z,1011.05
2022-10-14T05:13:39.400Z,1010.99
2022-10-14T05:14:39.389Z,1010.96
2022-10-14T05:15:39.364Z,1010.96
2022-10-14T05:16:39.412Z,1010.99
2022-10-14T05:17:39.334Z,1010.98
2022-10-14T05:18:39.335Z,1010.92
2022-10-14T05:19:39.324Z,1010.94
2022-10-14T05:20:39.333Z,1010.91
2022-10-14T05:21:39.295Z,1010.93
2022-10-14T05:22:39.272Z,1010.90
2022-10-14T05:23:39.255Z,1010.90
2022-10-14T05:24:39.540Z,1010.87
2022-10-14T05:25:39.243Z,1010.79
2022-10-14T05:26:39.249Z,1010.86
2022-10-14T05:27:39.225Z,1010.83
2022-10-14T05:28:39.238Z,1010.81
2022-10-14T05:29:39.215Z,1010.75
2022-10-14T05:30:39.197Z,1010.81
2022-10-14T05:31:39.174Z,1010.75
2022-10-14T05:32:39.174Z,1010.74
2022-10-14T05:33:39.141Z,1010.80
2022-10-14T05:34:39.156Z,1010.70
2022-10-14T05:35:57.557Z,1010.80
2022-10-14T05:36:40.116Z,1010.73
2022-10-14T05:37:39.075Z,1010.76
2022-10-14T05:38:39.062Z,1010.70
2022-10-14T05:39:39.088Z,1010.70
2022-10-14T05:40:39.056Z,1010.79
2022-10-14T05:41:39.147Z,1010.80
2022-10-14T05:42:39.045Z,1010.82
2022-10-14T05:43:39.015Z,1010.85
2022-10-14T05:44:39.014Z,1010.77
2022-10-14T05:45:38.982Z,1010.87
2022-10-14T05:46:38.987Z,1010.83
2022-10-14T05:47:38.951Z,1010.84
2022-10-14T05:48:39.064Z,1010.81
2022-10-14T05:49:38.963Z,1010.83
2022-10-14T05:50:38.927Z,1010.83
2022-10-14T05:51:38.922Z,1010.82
2022-10-14T05:52:38.897Z,1010.80
2022-10-14T05:53:38.892Z,1010.82
2022-10-14T05:54:38.873Z,1010.82
2022-10-14T05:55:38.850Z,1010.80
2022-10-14T05:56:38.917Z,1010.79
2022-10-14T05:57:38.828Z,1010.83
2022-10-14T05:58:38.809Z,1010.77
2022-10-14T05:59:38.912Z,1010.80
2022-10-14T06:00:38.796Z,1010.70
2022-10-14T06:01:40.491Z,1010.78
2022-10-14T06:02:38.770Z,1010.80
2022-10-14T06:03:38.778Z,1010.74
2022-10-14T06:04:38.761Z,1010.75
2022-10-14T06:05:38.719Z,1010.67
2022-10-14T06:06:38.758Z,1010.64
2022-10-14T06:07:38.722Z,1010.67
2022-10-14T06:08:38.688Z,1010.61
2022-10-14T06:09:38.701Z,1010.66
2022-10-14T06:10:38.692Z,1010.62
2022-10-14T06:11:38.638Z,1010.65
2022-10-14T06:12:38.656Z,1010.63
2022-10-14T06:13:38.635Z,1010.65
2022-10-14T06:14:38.624Z,1010.66
2022-10-14T06:15:39.308Z,1010.64
2022-10-14T06:16:38.637Z,1010.64
2022-10-14T06:17:38.570Z,1010.62
2022-10-14T06:18:39.277Z,1010.66
2022-10-14T06:19:38.605Z,1010.69
2022-10-14T06:20:38.539Z,1010.60
2022-10-14T06:21:38.557Z,1010.64
2022-10-14T06:22:38.495Z,1010.73
2022-10-14T06:23:38.529Z,1010.69
2022-10-14T06:24:38.510Z,1010.66
2022-10-14T06:25:38.463Z,1010.66
2022-10-14T06:26:38.449Z,1010.67
2022-10-14T06:27:38.446Z,1010.66
2022-10-14T06:28:38.583Z,1010.68
2022-10-14T06:29:38.455Z,1010.66
2022-10-14T06:30:38.448Z,1010.63
2022-10-14T06:31:38.415Z,1010.64
2022-10-14T06:32:38.400Z,1010.59
2022-10-14T06:33:38.366Z,1010.68
2022-10-14T06:34:38.387Z,1010.70
2022-10-14T06:35:38.349Z,1010.61
2022-10-14T06:36:38.424Z,1010.58
2022-10-14T06:37:39.277Z,1010.66
2022-10-14T06:38:38.294Z,1010.59
2022-10-14T06:39:38.297Z,1010.51
2022-10-14T06:40:38.278Z,1010.61
2022-10-14T06:41:38.268Z,1010.56
2022-10-14T06:42:38.245Z,1010.55
2022-10-14T06:43:38.227Z,1010.56
2022-10-14T06:44:38.225Z,1010.59
2022-10-14T06:45:38.205Z,1010.56
2022-10-14T06:46:38.195Z,1010.62
2022-10-14T06:47:38.173Z,1010.55
2022-10-14T06:48:38.182Z,1010.57
2022-10-14T06:49:38.186Z,1010.57
2022-10-14T06:50:38.164Z,1010.61
2022-10-14T06:51:38.136Z,1010.55
2022-10-14T06:52:38.132Z,1010.61
2022-10-14T06:53:38.111Z,1010.58
2022-10-14T06:54:39.407Z,1010.61
2022-10-14T06:55:38.075Z,1010.58
2022-10-14T06:56:38.073Z,1010.59
2022-10-14T06:57:38.061Z,1010.63
2022-10-14T06:58:38.045Z,1010.57
2022-10-14T06:59:38.046Z,1010.57
2022-10-14T07:00:42.206Z,1010.59
2022-10-14T07:01:39.986Z,1010.55
2022-10-14T07:02:37.996Z,1010.57
2022-10-14T07:03:38.008Z,1010.60
2022-10-14T07:04:37.970Z,1010.54
2022-10-14T07:05:37.943Z,1010.57
2022-10-14T07:06:37.936Z,1010.58
2022-10-14T07:07:37.979Z,1010.52
2022-10-14T07:08:37.901Z,1010.54
2022-10-14T07:09:37.916Z,1010.55
2022-10-14T07:10:37.955Z,1010.52
2022-10-14T07:11:37.894Z,1010.44
2022-10-14T07:12:37.876Z,1010.52
2022-10-14T07:13:38.130Z,1010.50
2022-10-14T07:14:37.843Z,1010.47
2022-10-14T07:15:37.846Z,1010.43
2022-10-14T07:16:37.802Z,1010.51
2022-10-14T07:17:38.234Z,1010.45
2022-10-14T07:18:37.779Z,1010.45
2022-10-14T07:19:37.805Z,1010.36
2022-10-14T07:20:37.778Z,1010.44
2022-10-14T07:21:37.759Z,1010.45
2022-10-14T07:22:39.086Z,1010.41
2022-10-14T07:23:37.731Z,1010.44
2022-10-14T07:24:37.733Z,1010.40
2022-10-14T07:25:37.692Z,1010.43
2022-10-14T07:26:37.669Z,1010.38
2022-10-14T07:27:37.696Z,1010.39
2022-10-14T07:28:38.061Z,1010.38
2022-10-14T07:29:37.641Z,1010.42
2022-10-14T07:30:37.637Z,1010.41
2022-10-14T07:31:37.622Z,1010.37
2022-10-14T07:32:37.615Z,1010.45
2022-10-14T07:34:37.591Z,1010.38
2022-10-14T07:35:37.575Z,1010.35
2022-10-14T07:36:37.580Z,1010.37
2022-10-14T07:37:37.546Z,1010.40
2022-10-14T07:38:37.562Z,1010.39
2022-10-14T07:39:37.554Z,1010.41
2022-10-14T07:40:37.487Z,1010.39
2022-10-14T07:41:37.603Z,1010.42
2022-10-14T07:42:37.527Z,1010.37
2022-10-14T07:43:37.462Z,1010.41
2022-10-14T07:44:37.456Z,1010.43
2022-10-14T07:45:38.180Z,1010.40
2022-10-14T07:46:37.414Z,1010.33
2022-10-14T07:47:37.414Z,1010.36
2022-10-14T07:48:52.684Z,1010.36
2022-10-14T07:49:38.429Z,1010.33
2022-10-14T07:50:37.388Z,1010.38
2022-10-14T07:51:37.406Z,1010.33
2022-10-14T07:52:37.360Z,1010.35
2022-10-14T07:53:37.369Z,1010.38
2022-10-14T07:54:37.339Z,1010.36
2022-10-14T07:55:37.321Z,1010.32
2022-10-14T07:56:37.290Z,1010.36
2022-10-14T07:57:37.349Z,1010.33
2022-10-14T07:58:39.987Z,1010.33
2022-10-14T07:59:38.288Z,1010.36
2022-10-14T08:00:37.224Z,1010.33
2022-10-14T08:01:37.306Z,1010.38
2022-10-14T08:02:37.204Z,1010.40
2022-10-14T08:03:37.222Z,1010.40
2022-10-14T08:04:37.206Z,1010.43
2022-10-14T08:05:38.803Z,1010.41
2022-10-14T08:06:37.170Z,1010.32
2022-10-14T08:07:37.143Z,1010.32
2022-10-14T08:08:37.159Z,1010.31
2022-10-14T08:09:37.249Z,1010.35
2022-10-14T08:10:37.117Z,1010.27
2022-10-14T08:11:37.096Z,1010.27
2022-10-14T08:12:37.098Z,1010.27
2022-10-14T08:13:40.594Z,1010.39
2022-10-14T08:14:38.082Z,1010.32
2022-10-14T08:15:37.064Z,1010.33
2022-10-14T08:16:37.036Z,1010.27
2022-10-14T08:17:37.063Z,1010.21
2022-10-14T08:18:37.023Z,1010.29
2022-10-14T08:19:37.017Z,1010.35
2022-10-14T08:20:36.987Z,1010.21
2022-10-14T08:21:36.980Z,1010.19
2022-10-14T08:22:37.049Z,1010.14
2022-10-14T08:23:36.932Z,1010.09
2022-10-14T08:24:36.946Z,1010.09
2022-10-14T08:25:36.901Z,1010.14
2022-10-14T08:26:36.927Z,1010.17
2022-10-14T08:27:36.891Z,1010.17
2022-10-14T08:28:36.907Z,1010.22
2022-10-14T08:29:36.881Z,1010.16
2022-10-14T08:30:36.859Z,1010.13
2022-10-14T08:31:36.860Z,1010.11
2022-10-14T08:32:36.831Z,1010.05
2022-10-14T08:33:36.802Z,1010.03
2022-10-14T08:34:36.811Z,1010.01
2022-10-14T08:35:36.780Z,1010.05
2022-10-14T08:36:36.763Z,1010.01
2022-10-14T08:37:36.776Z,1010.01
2022-10-14T08:38:36.739Z,1010.00
2022-10-14T08:39:36.747Z,1010.01
2022-10-14T08:40:36.712Z,1010.02
2022-10-14T08:41:36.726Z,1009.97
2022-10-14T08:42:36.681Z,1009.91
2022-10-14T08:43:36.670Z,1009.98
2022-10-14T08:44:36.703Z,1009.95
2022-10-14T08:45:36.661Z,1009.90
2022-10-14T08:46:36.629Z,1009.90
2022-10-14T08:47:36.656Z,1009.90
2022-10-14T08:48:36.610Z,1009.90
2022-10-14T08:49:36.609Z,1009.91
2022-10-14T08:50:36.592Z,1009.93
2022-10-14T08:51:36.582Z,1009.89
2022-10-14T08:52:37.817Z,1009.89
2022-10-14T08:53:36.570Z,1009.85
2022-10-14T08:54:36.564Z,1009.76
2022-10-14T08:55:36.534Z,1009.77
2022-10-14T08:56:36.499Z,1009.81
2022-10-14T08:57:36.503Z,1009.78
2022-10-14T08:58:36.478Z,1009.75
2022-10-14T08:59:36.493Z,1009.75
2022-10-14T09:00:36.470Z,1009.72
2022-10-14T09:01:36.450Z,1009.79
2022-10-14T09:02:36.462Z,1009.76
2022-10-14T09:03:36.416Z,1009.71
2022-10-14T09:04:36.427Z,1009.78
2022-10-14T09:05:36.401Z,1009.75
2022-10-14T09:06:36.391Z,1009.77
2022-10-14T09:07:36.363Z,1009.72
2022-10-14T09:08:36.348Z,1009.70
2022-10-14T09:09:36.347Z,1009.61
2022-10-14T09:10:36.350Z,1009.65
2022-10-14T09:11:36.341Z,1009.64
2022-10-14T09:12:36.310Z,1009.68
2022-10-14T09:13:36.286Z,1009.65
2022-10-14T09:14:36.291Z,1009.66
2022-10-14T09:15:36.289Z,1009.67
2022-10-14T09:16:36.267Z,1009.62
2022-10-14T09:17:37.920Z,1009.61
2022-10-14T09:18:36.232Z,1009.63
2022-10-14T09:19:36.229Z,1009.68
2022-10-14T09:20:36.207Z,1009.63
2022-10-14T09:21:53.085Z,1009.61
2022-10-14T09:22:37.201Z,1009.57
2022-10-14T09:23:36.189Z,1009.57
2022-10-14T09:24:36.143Z,1009.63
2022-10-14T09:25:36.143Z,1009.64
2022-10-14T09:26:36.134Z,1009.62
2022-10-14T09:27:36.171Z,1009.62
2022-10-14T09:28:36.150Z,1009.58
2022-10-14T09:29:36.094Z,1009.53
2022-10-14T09:30:36.071Z,1009.48
2022-10-14T09:31:36.079Z,1009.51
2022-10-14T09:32:36.050Z,1009.50
2022-10-14T09:33:38.322Z,1009.49
2022-10-14T09:34:37.033Z,1009.49
2022-10-14T09:35:36.014Z,1009.45
2022-10-14T09:36:35.999Z,1009.51
2022-10-14T09:37:36.007Z,1009.50
2022-10-14T09:38:35.956Z,1009.49
2022-10-14T09:39:35.955Z,1009.48
2022-10-14T09:40:35.952Z,1009.48
2022-10-14T09:41:35.947Z,1009.50
2022-10-14T09:42:35.927Z,1009.57
2022-10-14T09:43:35.972Z,1009.55
2022-10-14T09:44:35.899Z,1009.55
2022-10-14T09:45:35.883Z,1009.59
2022-10-14T09:46:35.853Z,1009.56
2022-10-14T09:47:35.858Z,1009.58
2022-10-14T09:48:35.822Z,1009.58
2022-10-14T09:49:35.831Z,1009.56
2022-10-14T09:50:35.844Z,1009.52
2022-10-14T09:51:35.804Z,1009.52
2022-10-14T09:52:35.786Z,1009.52
2022-10-14T09:53:35.801Z,1009.50
2022-10-14T09:54:35.796Z,1009.47
2022-10-14T09:55:35.773Z,1009.45
2022-10-14T09:56:39.075Z,1009.48
2022-10-14T09:57:36.729Z,1009.37
2022-10-14T09:58:35.705Z,1009.38
2022-10-14T09:59:35.707Z,1009.40
2022-10-14T10:00:35.686Z,1009.42
2022-10-14T10:01:35.675Z,1009.42
2022-10-14T10:02:35.677Z,1009.36
2022-10-14T10:03:35.682Z,1009.36
2022-10-14T10:04:35.643Z,1009.24
2022-10-14T10:05:35.635Z,1009.30
2022-10-14T10:06:35.598Z,1009.23
2022-10-14T10:07:35.612Z,1009.23
2022-10-14T10:08:35.561Z,1009.23
2022-10-14T10:09:35.581Z,1009.28
2022-10-14T10:10:35.542Z,1009.24
2022-10-14T10:11:35.532Z,1009.25
2022-10-14T10:12:35.539Z,1009.25
2022-10-14T10:13:35.501Z,1009.28
2022-10-14T10:14:35.489Z,1009.26
2022-10-14T10:15:35.535Z,1009.33
2022-10-14T10:16:35.472Z,1009.32
2022-10-14T10:17:35.459Z,1009.30
2022-10-14T10:18:35.453Z,1009.32
2022-10-14T10:19:35.460Z,1009.25
2022-10-14T10:20:35.433Z,1009.27
2022-10-14T10:21:35.413Z,1009.28
2022-10-14T10:22:35.419Z,1009.28
2022-10-14T10:23:35.387Z,1009.33
2022-10-14T10:24:35.376Z,1009.25
2022-10-14T10:25:35.378Z,1009.28
2022-10-14T10:26:35.348Z,1009.23
2022-10-14T10:27:35.333Z,1009.21
2022-10-14T10:28:35.384Z,1009.20
2022-10-14T10:29:35.312Z,1009.18
2022-10-14T10:30:35.347Z,1009.16
2022-10-14T10:31:35.433Z,1009.14
2022-10-14T10:32:35.282Z,1009.16
2022-10-14T10:33:35.249Z,1009.13
2022-10-14T10:34:35.230Z,1009.11
2022-10-14T10:35:35.260Z,1009.14
2022-10-14T10:36:35.210Z,1009.09
2022-10-14T10:37:35.209Z,1009.05
2022-10-14T10:38:35.217Z,1009.05
2022-10-14T10:39:35.183Z,1009.09
2022-10-14T10:40:35.226Z,1009.12
2022-10-14T10:41:35.151Z,1009.10
2022-10-14T10:42:35.128Z,1009.04
2022-10-14T10:43:35.132Z,1009.07
2022-10-14T10:44:35.135Z,1008.99
2022-10-14T10:45:36.666Z,1009.01
2022-10-14T10:46:35.520Z,1009.06
2022-10-14T10:47:35.116Z,1008.98
2022-10-14T10:48:35.073Z,1009.00
2022-10-14T10:49:35.075Z,1009.00
2022-10-14T10:50:35.065Z,1008.96
2022-10-14T10:51:35.059Z,1008.93
2022-10-14T10:52:35.042Z,1008.94
2022-10-14T10:53:35.052Z,1008.93
2022-10-14T10:54:34.992Z,1008.95
2022-10-14T10:55:35.068Z,1008.91
2022-10-14T10:56:34.970Z,1008.92
2022-10-14T10:57:34.973Z,1008.92
2022-10-14T10:58:34.956Z,1008.88
2022-10-14T10:59:34.942Z,1008.86
2022-10-14T11:00:34.935Z,1008.85
2022-10-14T11:01:34.955Z,1008.88
2022-10-14T11:02:34.902Z,1008.87
2022-10-14T11:03:34.893Z,1008.84
2022-10-14T11:04:34.899Z,1008.80
2022-10-14T11:05:34.923Z,1008.80
2022-10-14T11:06:34.933Z,1008.73
2022-10-14T11:07:34.842Z,1008.74
2022-10-14T11:08:34.820Z,1008.73
2022-10-14T11:09:34.814Z,1008.72
2022-10-14T11:10:34.800Z,1008.68
2022-10-14T11:11:34.794Z,1008.68
2022-10-14T11:12:34.761Z,1008.63
2022-10-14T11:13:34.771Z,1008.64
2022-10-14T11:14:34.731Z,1008.62
2022-10-14T11:15:34.751Z,1008.64
2022-10-14T11:16:34.721Z,1008.63
2022-10-14T11:17:34.763Z,1008.60
2022-10-14T11:18:34.690Z,1008.59
2022-10-14T11:19:34.691Z,1008.64
2022-10-14T11:20:34.673Z,1008.62
2022-10-14T11:21:34.661Z,1008.62
2022-10-14T11:22:34.670Z,1008.59
2022-10-14T11:23:34.636Z,1008.55
2022-10-14T11:24:34.610Z,1008.62
2022-10-14T11:25:34.622Z,1008.61
2022-10-14T11:27:34.591Z,1008.62
2022-10-14T11:28:34.630Z,1008.60
2022-10-14T11:29:34.524Z,1008.58
2022-10-14T11:30:34.528Z,1008.54
2022-10-14T11:31:34.493Z,1008.54
2022-10-14T11:32:42.060Z,1008.55
2022-10-14T11:33:38.966Z,1008.48
2022-10-14T11:34:35.465Z,1008.47
2022-10-14T11:36:34.428Z,1008.44
2022-10-14T11:37:34.446Z,1008.43
2022-10-14T11:39:35.703Z,1008.40
2022-10-14T11:40:34.404Z,1008.36
2022-10-14T11:41:34.360Z,1008.42
2022-10-14T11:42:34.385Z,1008.41
2022-10-14T11:43:34.348Z,1008.38
2022-10-14T11:45:34.344Z,1008.31
2022-10-14T11:46:34.292Z,1008.28
2022-10-14T11:47:34.300Z,1008.33
2022-10-14T11:48:34.293Z,1008.28
2022-10-14T11:49:34.274Z,1008.27
2022-10-14T11:50:34.280Z,1008.28
2022-10-14T11:51:35.950Z,1008.22
2022-10-14T11:52:34.229Z,1008.23
2022-10-14T11:53:34.268Z,1008.21
2022-10-14T11:54:34.200Z,1008.24
2022-10-14T11:55:34.213Z,1008.25
2022-10-14T11:56:34.175Z,1008.22
2022-10-14T11:57:34.169Z,1008.27
2022-10-14T11:58:34.172Z,1008.23
2022-10-14T11:59:34.133Z,1008.20
2022-10-14T12:00:34.154Z,1008.22
2022-10-14T12:01:37.279Z,1008.25
2022-10-14T12:02:34.143Z,1008.21
2022-10-14T12:03:34.079Z,1008.19
2022-10-14T12:04:34.103Z,1008.20
2022-10-14T12:05:34.058Z,1008.24
2022-10-14T12:06:34.039Z,1008.18
2022-10-14T12:07:34.050Z,1008.14
2022-10-14T12:08:35.725Z,1008.16
2022-10-14T12:09:34.086Z,1008.15
2022-10-14T12:10:34.024Z,1008.14
2022-10-14T12:11:33.981Z,1008.19
2022-10-14T12:12:33.980Z,1008.15
2022-10-14T12:13:33.947Z,1008.20
2022-10-14T12:14:33.983Z,1008.13